Terminal Aerodrome Forecast
Issued by NWS

Home | Current Version | Previous Version | Text Only | Print | Product List | Glossary On
Versions: 1 2 3 4 5 6 7 8 9 10 11 12 13 14 15 16 17 18 19 20 21 22 23 24 25 26 27 28 29 30
000
FTUS42 KJAX 182300
TAFVQQ
TAF
KVQQ 182336Z 1900/1924 17010KT P6SM SCT015 OVC035
      TEMPO 1900/1903 5SM -SHRA BKN008
     FM190700 19006KT P6SM SCT008 BKN015
     FM191400 18010KT P6SM SCT015 BKN035
     FM191900 10007KT P6SM VCSH BKN040=

USA.gov is the U.S. government's official web portal to all federal, state and local government web resources and services.